Terminal Aerodrome Forecast
Issued by NWS

Home | Current Version | Previous Version | Text Only | Print | Product List | Glossary Off
Versions: 1 2 3 4 5 6 7 8 9 10 11 12 13 14 15 16 17 18 19 20 21 22 23 24 25 26

000
FTUS43 KBIS 250200 AAB
TAFMOT
TAF AMD
KMOT 250206Z 2502/2524 24008KT P6SM BKN030
      TEMPO 2502/2505 5SM -SN
     FM250500 13004KT P6SM OVC016
     FM251500 12009KT 4SM -SN OVC012
     FM251700 08011KT 1SM -SN OVC007=

USA.gov is the U.S. government's official web portal to all federal, state and local government web resources and services.